Terminal Aerodrome Forecast
Issued by NWS

Home | Current Version | Previous Version | Graphics & Text | Print | Product List | Glossary On
Versions: 1 2 3 4 5 6 7 8 9 10 11 12 13 14 15 16 17 18
000
FTUS42 KMHX 201125
TAFOAJ
TAF
KOAJ 201125Z 2012/2112 07003KT P6SM BKN035
     FM201500 11006KT P6SM VCSH BKN030
     FM201900 17007KT P6SM BKN060
     FM210100 VRB04KT P6SM BKN250
     FM210700 00000KT 1/2SM FG BKN250
      AMD LTD TO CLD VIS AND WIND=

USA.gov is the U.S. government's official web portal to all federal, state and local government web resources and services.